Time;durP1;ratioP1;P1;durP2;ratioP2;P2;SDS_P1;SDS_P2;PMS_P1;PMS_P2;Temp;Humidity;BMP_temperature;BMP_pressure;BME280_temperature;BME280_humidity;BME280_pressure;Samples;Min_cycle;Max_cycle;Signal;HPM_P1;HPM_P2
2021/11/06 00:00:18;;;;;;;8.23;5.97;;;7.30;99.90;;;;;;5073724;28;20232;-76
2021/11/06 00:02:46;;;;;;;8.90;6.13;;;7.30;99.90;;;;;;5073150;28;20209;-75
2021/11/06 00:05:13;;;;;;;9.77;7.23;;;7.30;99.90;;;;;;5073638;28;20203;-73
2021/11/06 00:07:41;;;;;;;8.47;6.20;;;7.20;99.90;;;;;;5073668;28;20234;-72
2021/11/06 00:10:10;;;;;;;8.07;6.17;;;7.20;99.90;;;;;;5074032;28;20275;-75
2021/11/06 00:12:37;;;;;;;8.07;6.30;;;7.20;99.90;;;;;;5074226;28;20279;-75
2021/11/06 00:15:05;;;;;;;13.77;6.77;;;7.20;99.90;;;;;;5072925;28;20256;-77
2021/11/06 00:17:32;;;;;;;12.63;6.60;;;7.10;99.90;;;;;;5073484;28;20206;-73
2021/11/06 00:19:59;;;;;;;9.47;6.03;;;7.00;99.90;;;;;;5073038;28;21185;-73
2021/11/06 00:22:26;;;;;;;12.30;6.23;;;6.90;99.90;;;;;;5073699;28;20202;-73
2021/11/06 00:24:55;;;;;;;7.83;6.37;;;6.80;99.90;;;;;;5073088;28;20210;-74
2021/11/06 00:27:22;;;;;;;7.10;4.80;;;6.80;99.90;;;;;;5073051;28;20222;-71
2021/11/06 00:29:49;;;;;;;8.23;5.67;;;6.80;99.90;;;;;;5072811;28;20677;-73
2021/11/06 00:32:16;;;;;;;8.53;5.93;;;6.80;99.90;;;;;;5073189;28;20206;-71
2021/11/06 00:34:43;;;;;;;8.90;6.63;;;6.80;99.90;;;;;;5072884;28;20202;-70
2021/11/06 00:37:10;;;;;;;7.40;5.70;;;6.80;99.90;;;;;;5073626;28;20268;-70
2021/11/06 00:39:37;;;;;;;6.10;5.13;;;6.70;99.90;;;;;;5074269;28;20259;-71
2021/11/06 00:42:06;;;;;;;8.40;5.57;;;6.60;99.90;;;;;;5072555;28;20279;-75
2021/11/06 00:44:33;;;;;;;7.83;5.60;;;6.60;99.90;;;;;;5073100;28;20202;-73
2021/11/06 00:47:00;;;;;;;7.77;5.47;;;6.60;99.90;;;;;;5072908;28;20375;-74
2021/11/06 00:49:27;;;;;;;7.80;4.87;;;6.50;99.90;;;;;;5073064;28;20210;-73
2021/11/06 00:51:54;;;;;;;8.37;6.27;;;6.50;99.90;;;;;;5072702;28;20259;-74
2021/11/06 00:54:21;;;;;;;9.27;5.87;;;6.50;99.90;;;;;;5072935;28;20206;-72
2021/11/06 00:56:48;;;;;;;7.27;5.67;;;6.60;99.90;;;;;;5072523;28;20301;-71
2021/11/06 00:59:17;;;;;;;8.47;6.10;;;6.60;99.90;;;;;;5072623;28;20666;-72
2021/11/06 01:01:44;;;;;;;6.37;5.23;;;6.40;99.90;;;;;;5071157;28;20202;-73
2021/11/06 01:04:11;;;;;;;7.47;5.93;;;6.40;99.90;;;;;;5072940;28;20206;-78
2021/11/06 01:06:38;;;;;;;7.53;5.37;;;6.40;99.90;;;;;;5072828;28;20238;-73
2021/11/06 01:09:05;;;;;;;8.57;5.80;;;6.40;99.90;;;;;;5072311;28;20210;-71
2021/11/06 01:11:32;;;;;;;8.60;5.90;;;6.40;99.90;;;;;;5072262;28;20267;-72
2021/11/06 01:13:59;;;;;;;8.57;6.30;;;6.50;99.90;;;;;;5071992;28;20689;-73
2021/11/06 01:16:27;;;;;;;8.40;5.20;;;6.50;99.90;;;;;;5072651;28;20272;-72
2021/11/06 01:18:54;;;;;;;9.00;5.87;;;6.40;99.90;;;;;;5071888;28;20618;-72
2021/11/06 01:21:22;;;;;;;7.53;5.60;;;6.30;99.90;;;;;;5072536;28;20206;-72
2021/11/06 01:23:49;;;;;;;7.57;6.87;;;6.30;99.90;;;;;;5071600;28;20669;-73
2021/11/06 01:26:16;;;;;;;9.13;5.63;;;6.20;99.90;;;;;;5072267;28;20748;-72
2021/11/06 01:28:43;;;;;;;9.13;5.43;;;6.20;99.90;;;;;;5071334;28;20320;-72
2021/11/06 01:31:10;;;;;;;5.77;5.00;;;6.20;99.90;;;;;;5071935;28;20202;-72
2021/11/06 01:33:39;;;;;;;8.40;5.80;;;6.20;99.90;;;;;;5072322;28;20263;-71
2021/11/06 01:36:06;;;;;;;6.93;6.10;;;6.20;99.90;;;;;;5071992;28;20206;-75
2021/11/06 01:38:33;;;;;;;9.00;6.40;;;6.20;99.90;;;;;;5072067;28;20289;-71
2021/11/06 01:41:00;;;;;;;8.23;6.40;;;6.10;99.90;;;;;;5071400;28;20655;-72
2021/11/06 01:43:28;;;;;;;7.57;6.57;;;6.10;99.90;;;;;;5072342;28;20198;-74
2021/11/06 01:45:56;;;;;;;10.60;6.77;;;6.10;99.90;;;;;;5071498;28;20221;-72
2021/11/06 01:48:23;;;;;;;8.23;6.27;;;6.00;99.90;;;;;;5071827;28;20283;-71
2021/11/06 01:50:52;;;;;;;8.90;7.37;;;6.00;99.90;;;;;;5071202;28;20669;-74
2021/11/06 01:53:19;;;;;;;8.00;5.23;;;6.00;99.90;;;;;;5071628;28;20397;-72
2021/11/06 01:55:49;;;;;;;7.00;6.23;;;6.10;99.90;;;;;;5071456;28;20206;-72
2021/11/06 01:58:16;;;;;;;10.33;7.00;;;6.10;99.90;;;;;;5071333;28;20623;-72
2021/11/06 02:00:43;;;;;;;9.53;6.33;;;6.10;99.90;;;;;;5071296;28;20206;-71
2021/11/06 02:03:10;;;;;;;8.10;6.30;;;5.90;99.90;;;;;;5071514;28;20214;-71
2021/11/06 02:05:37;;;;;;;7.50;5.87;;;5.90;99.90;;;;;;5071688;28;20561;-72
2021/11/06 02:08:05;;;;;;;8.97;6.10;;;5.80;99.90;;;;;;5070677;28;20234;-72
2021/11/06 02:10:33;;;;;;;9.20;7.17;;;5.80;99.90;;;;;;5071616;28;20258;-74
2021/11/06 02:13:00;;;;;;;11.47;6.20;;;5.80;99.90;;;;;;5070480;28;20700;-75
2021/11/06 02:15:27;;;;;;;9.27;6.50;;;5.80;99.90;;;;;;5071312;28;20283;-70
2021/11/06 02:17:54;;;;;;;7.93;6.37;;;5.80;99.90;;;;;;5070805;28;20806;-71
2021/11/06 02:20:23;;;;;;;9.50;6.73;;;5.70;99.90;;;;;;5070954;28;20622;-71
2021/11/06 02:22:52;;;;;;;7.90;6.77;;;5.70;99.90;;;;;;5071045;28;20214;-72
2021/11/06 02:25:20;;;;;;;6.70;5.40;;;5.70;99.90;;;;;;5071198;28;20206;-74
2021/11/06 02:27:48;;;;;;;8.10;6.60;;;5.60;99.90;;;;;;5069201;28;20229;-75
2021/11/06 02:30:17;;;;;;;8.87;6.07;;;5.70;99.90;;;;;;5069384;28;20256;-70
2021/11/06 02:32:46;;;;;;;7.63;5.50;;;5.70;99.90;;;;;;5070341;28;20240;-70
2021/11/06 02:35:14;;;;;;;7.43;6.70;;;5.80;99.90;;;;;;5070924;28;20752;-71
2021/11/06 02:37:42;;;;;;;11.40;6.13;;;5.80;99.90;;;;;;5070966;28;20255;-70
2021/11/06 02:40:13;;;;;;;7.10;5.63;;;5.80;99.90;;;;;;5070976;28;20210;-69
2021/11/06 02:42:41;;;;;;;6.23;4.60;;;5.80;99.90;;;;;;5070615;28;20206;-71
2021/11/06 02:45:10;;;;;;;8.10;5.77;;;5.80;99.90;;;;;;5070491;28;20203;-71
2021/11/06 02:47:37;;;;;;;6.57;4.70;;;5.70;99.90;;;;;;5071281;28;20312;-69
2021/11/06 02:50:05;;;;;;;9.40;5.30;;;5.70;99.90;;;;;;5070311;28;20232;-70
2021/11/06 02:52:32;;;;;;;6.50;5.60;;;5.70;99.90;;;;;;5070864;28;20210;-70
2021/11/06 02:55:00;;;;;;;6.93;5.33;;;5.60;99.90;;;;;;5070232;28;20210;-70
2021/11/06 02:57:28;;;;;;;8.50;4.87;;;5.70;99.90;;;;;;5070438;28;20293;-71
2021/11/06 02:59:55;;;;;;;8.60;5.80;;;5.70;99.90;;;;;;5070444;28;20206;-69
2021/11/06 03:02:22;;;;;;;6.83;5.97;;;5.60;99.90;;;;;;5070362;28;20267;-70
2021/11/06 03:04:49;;;;;;;7.63;5.83;;;5.60;99.90;;;;;;5070426;28;20210;-74
2021/11/06 03:07:16;;;;;;;7.97;4.90;;;5.50;99.90;;;;;;5070477;28;20586;-70
2021/11/06 03:09:43;;;;;;;8.83;5.40;;;5.50;99.90;;;;;;5069848;28;20634;-71
2021/11/06 03:12:14;;;;;;;6.67;4.87;;;5.60;99.90;;;;;;5070002;28;20637;-72
2021/11/06 03:14:43;;;;;;;8.80;5.67;;;5.60;99.90;;;;;;5070303;28;20237;-72
2021/11/06 03:17:11;;;;;;;6.63;5.63;;;5.60;99.90;;;;;;5070364;28;20256;-72
2021/11/06 03:19:38;;;;;;;8.23;6.37;;;5.50;99.90;;;;;;5070768;28;20210;-72
2021/11/06 03:22:06;;;;;;;7.70;4.70;;;5.50;99.90;;;;;;5070219;28;20595;-72
2021/11/06 03:24:34;;;;;;;8.07;5.27;;;5.50;99.90;;;;;;5072340;28;20586;-72
2021/11/06 03:27:01;;;;;;;8.07;5.63;;;5.50;99.90;;;;;;5074338;28;20213;-72
2021/11/06 03:29:28;;;;;;;11.43;5.27;;;5.40;99.90;;;;;;5074322;28;20202;-71
2021/11/06 03:31:56;;;;;;;5.87;4.93;;;5.40;99.90;;;;;;5074310;28;20206;-71
2021/11/06 03:34:24;;;;;;;7.40;5.07;;;5.40;99.90;;;;;;5074371;28;20210;-71
2021/11/06 03:36:51;;;;;;;8.97;5.53;;;5.30;99.90;;;;;;5073923;28;20214;-72
2021/11/06 03:39:19;;;;;;;7.93;5.97;;;5.40;99.90;;;;;;5073860;28;20213;-72
2021/11/06 03:41:46;;;;;;;7.70;5.60;;;5.30;99.90;;;;;;5073693;28;20213;-72
2021/11/06 03:44:13;;;;;;;7.07;5.77;;;5.30;99.90;;;;;;5074364;28;20210;-73
2021/11/06 03:46:40;;;;;;;7.37;5.80;;;5.30;99.90;;;;;;5073964;28;20685;-72
2021/11/06 03:49:09;;;;;;;7.70;6.07;;;5.30;99.90;;;;;;5074229;28;20665;-73
2021/11/06 03:51:36;;;;;;;7.97;5.90;;;5.30;99.90;;;;;;5074075;28;20263;-72
2021/11/06 03:54:03;;;;;;;8.53;6.20;;;5.30;99.90;;;;;;5073383;28;20743;-73
2021/11/06 03:56:31;;;;;;;7.77;5.63;;;5.30;99.90;;;;;;5073916;28;20247;-73
2021/11/06 03:58:58;;;;;;;7.30;5.83;;;5.30;99.90;;;;;;5073423;28;20717;-72
2021/11/06 04:01:25;;;;;;;9.90;6.10;;;5.30;99.90;;;;;;5073722;28;20271;-72
2021/11/06 04:03:52;;;;;;;9.43;5.87;;;5.30;99.90;;;;;;5073224;28;20723;-72
2021/11/06 04:06:21;;;;;;;8.93;6.67;;;5.20;99.90;;;;;;5073621;28;20583;-72
2021/11/06 04:08:48;;;;;;;11.50;6.30;;;5.10;99.90;;;;;;5073073;28;20255;-72
2021/11/06 04:11:16;;;;;;;6.20;5.13;;;5.20;99.90;;;;;;5073958;28;20210;-71
2021/11/06 04:13:43;;;;;;;6.90;5.23;;;5.20;99.90;;;;;;5073157;28;20210;-70
2021/11/06 04:16:10;;;;;;;9.07;5.83;;;5.10;99.90;;;;;;5073738;28;20203;-72
2021/11/06 04:18:37;;;;;;;6.00;5.00;;;5.20;99.90;;;;;;5073468;28;20230;-72
2021/11/06 04:21:04;;;;;;;6.60;5.20;;;5.20;99.90;;;;;;5072870;28;20260;-70
2021/11/06 04:23:32;;;;;;;7.20;4.73;;;5.20;99.90;;;;;;5073416;28;20253;-73
2021/11/06 04:25:59;;;;;;;8.67;6.50;;;5.20;99.90;;;;;;5072938;28;20198;-72
2021/11/06 04:28:26;;;;;;;7.17;5.53;;;5.10;99.90;;;;;;5073209;28;20634;-72
2021/11/06 04:30:53;;;;;;;8.20;5.93;;;5.10;99.90;;;;;;5072860;28;20209;-72
2021/11/06 04:33:23;;;;;;;6.33;4.73;;;5.00;99.90;;;;;;5066034;28;20260;-73
2021/11/06 04:35:50;;;;;;;6.20;5.23;;;5.00;99.90;;;;;;5069623;28;20213;-72
2021/11/06 04:38:17;;;;;;;8.57;6.17;;;5.00;99.90;;;;;;5068840;28;20318;-72
2021/11/06 04:40:46;;;;;;;6.73;5.80;;;5.10;99.90;;;;;;5063885;28;20689;-72
2021/11/06 04:43:13;;;;;;;7.23;5.30;;;5.00;99.90;;;;;;5072963;28;20202;-72
2021/11/06 04:45:40;;;;;;;7.00;6.30;;;4.90;99.90;;;;;;5073433;28;20229;-72
2021/11/06 04:48:07;;;;;;;6.60;5.10;;;4.90;99.90;;;;;;5072959;28;20263;-72
2021/11/06 04:50:35;;;;;;;9.63;5.77;;;4.90;99.90;;;;;;5068240;28;20203;-71
2021/11/06 04:53:05;;;;;;;7.00;5.43;;;4.90;99.90;;;;;;5066136;28;21041;-72
2021/11/06 04:55:33;;;;;;;7.17;5.57;;;4.80;99.90;;;;;;5072609;28;20579;-72
2021/11/06 04:58:01;;;;;;;6.80;5.77;;;4.80;99.90;;;;;;5072614;28;20237;-71
2021/11/06 05:00:28;;;;;;;8.03;6.27;;;4.90;99.90;;;;;;5072545;28;20662;-71
2021/11/06 05:02:55;;;;;;;7.67;5.03;;;4.90;99.90;;;;;;5072208;28;20271;-71
2021/11/06 05:05:23;;;;;;;7.67;6.60;;;4.80;99.90;;;;;;5072314;28;20217;-73
2021/11/06 05:07:50;;;;;;;6.17;5.57;;;4.80;99.90;;;;;;5071841;28;20206;-71
2021/11/06 05:10:18;;;;;;;7.00;5.90;;;4.70;99.90;;;;;;5072386;28;20297;-71
2021/11/06 05:12:48;;;;;;;7.70;5.83;;;4.70;99.90;;;;;;5072248;28;20212;-71
2021/11/06 05:15:17;;;;;;;8.20;6.30;;;4.80;99.90;;;;;;5072405;28;20230;-72
2021/11/06 05:17:44;;;;;;;9.97;7.50;;;5.00;99.90;;;;;;5071914;28;20245;-73
2021/11/06 05:20:11;;;;;;;10.73;6.23;;;5.20;99.90;;;;;;5067237;28;20206;-72
2021/11/06 05:22:38;;;;;;;11.70;6.20;;;5.30;99.90;;;;;;5072480;28;20218;-72
2021/11/06 05:25:07;;;;;;;8.30;5.80;;;5.40;99.90;;;;;;5071998;28;20206;-72
2021/11/06 05:27:35;;;;;;;11.40;6.63;;;5.40;99.90;;;;;;5067878;28;20252;-73
2021/11/06 05:30:06;;;;;;;10.00;5.80;;;5.40;99.90;;;;;;5071829;28;20220;-73
2021/11/06 05:32:35;;;;;;;8.20;6.87;;;5.40;99.90;;;;;;5071868;28;20210;-73
2021/11/06 05:35:02;;;;;;;7.83;5.33;;;5.40;99.90;;;;;;5071271;28;20206;-72
2021/11/06 05:37:30;;;;;;;9.40;5.97;;;5.60;99.90;;;;;;5071743;28;20203;-72
2021/11/06 05:39:57;;;;;;;7.03;6.33;;;5.60;99.90;;;;;;5070912;28;20283;-73
2021/11/06 05:42:24;;;;;;;6.77;5.97;;;5.60;99.90;;;;;;5071585;28;20218;-72
2021/11/06 05:44:51;;;;;;;7.37;5.17;;;5.60;99.90;;;;;;5071056;28;20206;-72
2021/11/06 05:47:19;;;;;;;8.57;5.17;;;5.60;99.90;;;;;;5071645;28;20202;-72
2021/11/06 05:49:47;;;;;;;10.03;5.70;;;5.60;99.90;;;;;;5070848;28;20210;-72
2021/11/06 05:52:14;;;;;;;7.87;5.70;;;5.50;99.90;;;;;;5071485;28;20202;-73
2021/11/06 05:54:41;;;;;;;9.23;6.63;;;5.60;99.90;;;;;;5071247;28;20297;-73
2021/11/06 05:57:09;;;;;;;10.80;6.73;;;5.60;99.90;;;;;;5071236;28;20255;-73
2021/11/06 05:59:36;;;;;;;10.67;6.37;;;5.50;99.90;;;;;;5071496;28;20245;-72
2021/11/06 06:02:03;;;;;;;7.17;6.10;;;5.60;99.90;;;;;;5070737;28;20202;-71
2021/11/06 06:04:30;;;;;;;7.57;5.83;;;5.60;99.90;;;;;;5071287;28;20214;-73
2021/11/06 06:06:58;;;;;;;9.70;5.90;;;5.60;99.90;;;;;;5070910;28;20202;-72
2021/11/06 06:09:25;;;;;;;8.10;6.13;;;5.70;99.90;;;;;;5070925;28;20218;-72
2021/11/06 06:11:52;;;;;;;9.70;6.63;;;5.60;99.90;;;;;;5070863;28;20242;-75
2021/11/06 06:14:19;;;;;;;6.70;5.47;;;5.60;99.90;;;;;;5071017;28;20253;-72
2021/11/06 06:16:46;;;;;;;8.17;5.50;;;5.60;99.90;;;;;;5063934;28;20229;-72
2021/11/06 06:19:13;;;;;;;8.90;5.70;;;5.70;99.90;;;;;;5064056;28;20233;-72
2021/11/06 06:21:40;;;;;;;7.00;6.20;;;5.80;99.90;;;;;;5064908;28;20670;-72
2021/11/06 06:24:09;;;;;;;7.70;6.03;;;5.80;99.90;;;;;;5069336;28;20209;-72
2021/11/06 06:26:36;;;;;;;7.80;5.43;;;5.80;99.90;;;;;;5066158;28;20671;-73
2021/11/06 06:29:03;;;;;;;8.43;6.03;;;5.80;99.90;;;;;;5070509;28;20215;-72
2021/11/06 06:31:30;;;;;;;9.90;6.00;;;5.70;99.90;;;;;;5070835;28;20210;-72
2021/11/06 06:33:57;;;;;;;8.07;6.13;;;5.60;99.90;;;;;;5070400;28;20628;-74
2021/11/06 06:36:24;;;;;;;8.10;5.50;;;5.60;99.90;;;;;;5070236;28;20209;-75
2021/11/06 06:38:53;;;;;;;8.50;6.03;;;5.50;99.90;;;;;;5070457;28;20241;-74
2021/11/06 06:41:22;;;;;;;8.73;6.10;;;5.40;99.90;;;;;;5070192;28;20693;-75
2021/11/06 06:43:49;;;;;;;6.93;5.73;;;5.50;99.90;;;;;;5075513;28;20212;-73
2021/11/06 06:46:16;;;;;;;8.23;6.00;;;5.60;99.90;;;;;;5070583;28;20210;-72
2021/11/06 06:48:43;;;;;;;9.87;7.10;;;5.70;99.90;;;;;;5069932;28;20210;-74
2021/11/06 06:51:11;;;;;;;9.87;7.27;;;5.80;99.90;;;;;;5069368;28;20210;-73
2021/11/06 06:53:38;;;;;;;7.10;5.87;;;5.80;99.90;;;;;;5075446;28;20209;-74
2021/11/06 06:56:05;;;;;;;7.10;5.73;;;5.80;99.90;;;;;;5070130;28;20745;-73
2021/11/06 06:58:34;;;;;;;7.00;5.10;;;5.80;99.90;;;;;;5069155;28;20716;-74
2021/11/06 07:01:01;;;;;;;11.17;7.13;;;5.60;99.90;;;;;;5069941;28;20329;-76
2021/11/06 07:03:28;;;;;;;7.37;5.77;;;5.70;99.90;;;;;;5071353;28;20666;-72
2021/11/06 07:05:55;;;;;;;8.73;6.30;;;5.70;99.90;;;;;;5070138;28;20267;-73
2021/11/06 07:08:23;;;;;;;7.20;5.60;;;5.80;99.90;;;;;;5070264;28;20202;-72
2021/11/06 07:10:50;;;;;;;8.57;6.10;;;5.90;99.90;;;;;;5065381;28;20739;-73
2021/11/06 07:13:20;;;;;;;9.10;6.07;;;6.00;99.90;;;;;;5062184;28;20665;-73
2021/11/06 07:15:49;;;;;;;10.20;6.57;;;6.20;99.90;;;;;;5065141;28;20198;-76
2021/11/06 07:18:19;;;;;;;6.90;5.10;;;6.20;99.90;;;;;;5065735;28;20727;-75
2021/11/06 07:20:48;;;;;;;7.10;5.70;;;6.10;99.90;;;;;;5062096;28;20608;-73
2021/11/06 07:23:16;;;;;;;6.47;5.33;;;6.10;99.90;;;;;;5070066;28;20704;-75
2021/11/06 07:25:43;;;;;;;8.50;5.23;;;6.00;99.90;;;;;;5068363;28;20202;-73
2021/11/06 07:28:10;;;;;;;6.17;5.43;;;6.20;99.90;;;;;;5070090;28;20689;-74
2021/11/06 07:30:37;;;;;;;8.83;5.47;;;6.10;99.90;;;;;;5069716;28;20259;-72
2021/11/06 07:33:06;;;;;;;6.33;5.57;;;6.10;99.90;;;;;;5067992;28;20248;-71
2021/11/06 07:35:40;;;;;;;6.83;5.43;;;6.10;99.90;;;;;;5069228;28;20214;-73
2021/11/06 07:38:08;;;;;;;7.33;5.47;;;6.20;99.90;;;;;;5070734;28;20200;-72
2021/11/06 07:40:35;;;;;;;10.87;5.93;;;6.10;99.90;;;;;;5073138;28;20233;-73
2021/11/06 07:43:03;;;;;;;8.93;6.37;;;6.00;99.90;;;;;;5073711;28;20213;-72
2021/11/06 07:45:32;;;;;;;6.73;5.40;;;6.00;99.90;;;;;;5079657;28;20820;-71
2021/11/06 07:47:59;;;;;;;6.80;4.93;;;6.20;99.90;;;;;;5073625;28;20204;-72
2021/11/06 07:50:28;;;;;;;8.03;5.93;;;6.40;99.90;;;;;;5070249;28;20256;-71
2021/11/06 07:52:55;;;;;;;7.60;6.27;;;6.30;99.90;;;;;;5069477;28;20210;-72
2021/11/06 07:55:22;;;;;;;8.07;5.53;;;6.20;99.90;;;;;;5069741;28;20767;-72
2021/11/06 07:57:49;;;;;;;6.23;5.40;;;6.20;99.90;;;;;;5069283;28;20214;-74
2021/11/06 08:00:24;;;;;;;7.90;6.30;;;6.30;99.90;;;;;;5068964;28;20284;-73
2021/11/06 08:02:52;;;;;;;6.47;5.03;;;6.40;99.90;;;;;;5068699;28;20268;-72
2021/11/06 08:05:20;;;;;;;8.97;6.60;;;6.40;99.90;;;;;;5068941;28;20202;-73
2021/11/06 08:07:48;;;;;;;7.37;5.73;;;6.30;99.90;;;;;;5069775;28;20260;-74
2021/11/06 08:10:16;;;;;;;8.80;5.60;;;6.30;99.90;;;;;;5069732;28;20671;-72
2021/11/06 08:12:42;;;;;;;8.57;6.67;;;6.40;99.90;;;;;;5091719;28;20266;-73
2021/11/06 08:15:12;;;;;;;6.47;5.67;;;6.60;99.90;;;;;;5075942;28;20731;-71
2021/11/06 08:17:39;;;;;;;8.03;6.50;;;6.70;99.90;;;;;;5071720;28;20637;-72
2021/11/06 08:20:07;;;;;;;10.20;5.63;;;6.90;99.90;;;;;;5074672;28;20233;-72
2021/11/06 08:22:35;;;;;;;6.70;5.50;;;7.00;99.90;;;;;;5067810;28;20210;-72
2021/11/06 08:25:04;;;;;;;9.27;5.97;;;7.10;99.90;;;;;;5064471;28;20577;-74
2021/11/06 08:27:31;;;;;;;6.73;5.37;;;7.40;99.90;;;;;;5066481;28;20298;-73
2021/11/06 08:29:58;;;;;;;6.27;4.83;;;7.30;99.90;;;;;;5069282;28;20580;-73
2021/11/06 08:32:25;;;;;;;6.60;4.87;;;7.20;99.90;;;;;;5073307;28;20207;-76
2021/11/06 08:34:52;;;;;;;5.30;4.60;;;7.40;99.90;;;;;;5075058;28;20264;-74
2021/11/06 08:37:19;;;;;;;7.27;4.87;;;7.40;99.90;;;;;;5074731;28;20202;-73
2021/11/06 08:39:46;;;;;;;6.80;4.70;;;7.40;99.90;;;;;;5075436;28;20226;-74
2021/11/06 08:42:15;;;;;;;9.67;5.53;;;7.50;99.90;;;;;;5078776;28;20209;-73
2021/11/06 08:44:42;;;;;;;5.20;4.63;;;7.50;99.90;;;;;;5088912;28;20262;-73
2021/11/06 08:47:09;;;;;;;4.87;4.37;;;7.70;99.90;;;;;;5082215;28;20202;-72
2021/11/06 08:49:36;;;;;;;6.87;4.07;;;7.80;99.90;;;;;;5083581;28;20213;-73
2021/11/06 08:52:03;;;;;;;4.70;3.90;;;7.70;99.90;;;;;;5072484;28;20670;-73
2021/11/06 08:54:31;;;;;;;5.70;4.60;;;7.70;99.90;;;;;;5075925;28;20213;-73
2021/11/06 08:56:58;;;;;;;7.10;5.03;;;7.70;99.90;;;;;;5081241;28;20202;-73
2021/11/06 08:59:26;;;;;;;4.97;4.03;;;7.50;99.90;;;;;;5077570;28;20230;-73
2021/11/06 09:01:55;;;;;;;5.87;4.20;;;7.50;99.90;;;;;;5069683;28;20206;-75
2021/11/06 09:04:23;;;;;;;5.33;4.40;;;7.30;99.90;;;;;;5071297;28;20267;-76
2021/11/06 09:06:50;;;;;;;5.90;5.03;;;7.30;99.90;;;;;;5071659;28;20206;-73
2021/11/06 09:09:17;;;;;;;4.73;4.20;;;7.30;99.90;;;;;;5072698;28;20562;-76
2021/11/06 09:11:45;;;;;;;6.13;5.50;;;7.50;99.90;;;;;;5063749;28;20211;-78
2021/11/06 09:14:12;;;;;;;5.97;4.73;;;7.70;99.90;;;;;;5060394;28;20217;-73
2021/11/06 09:16:41;;;;;;;6.00;5.13;;;7.90;99.90;;;;;;5054586;28;20233;-75
2021/11/06 09:19:09;;;;;;;6.13;4.40;;;8.00;99.90;;;;;;5059422;28;20708;-79
2021/11/06 09:21:36;;;;;;;5.97;5.00;;;8.10;99.90;;;;;;5062791;28;20210;-77
2021/11/06 09:24:03;;;;;;;4.83;4.33;;;8.20;99.90;;;;;;5056292;28;20633;-76
2021/11/06 09:26:34;;;;;;;4.57;4.07;;;8.30;99.90;;;;;;5054707;28;20206;-72
2021/11/06 09:29:02;;;;;;;4.93;4.40;;;8.00;99.90;;;;;;5055765;28;20635;-78
2021/11/06 09:31:29;;;;;;;7.07;4.83;;;7.90;99.90;;;;;;5054250;28;20211;-76
2021/11/06 09:33:58;;;;;;;4.90;4.03;;;7.90;99.90;;;;;;5055141;28;20215;-75
2021/11/06 09:36:25;;;;;;;4.03;3.60;;;7.90;99.90;;;;;;5062925;28;20214;-75
2021/11/06 09:38:53;;;;;;;6.07;4.30;;;7.80;99.90;;;;;;5071432;28;20615;-78
2021/11/06 09:41:20;;;;;;;5.20;4.00;;;7.80;99.90;;;;;;5073496;28;20238;-79
2021/11/06 09:43:48;;;;;;;6.80;4.60;;;7.90;99.90;;;;;;5054308;28;20203;-75
2021/11/06 09:46:16;;;;;;;11.33;6.07;;;7.90;99.90;;;;;;5057402;28;20263;-77
2021/11/06 09:48:45;;;;;;;6.77;6.17;;;7.90;99.90;;;;;;5078983;28;21847;-75
2021/11/06 09:51:15;;;;;;;4.97;4.40;;;8.00;99.90;;;;;;5070343;28;20255;-80
2021/11/06 09:53:43;;;;;;;7.50;4.87;;;8.20;99.90;;;;;;5069464;28;20202;-77
2021/11/06 09:56:11;;;;;;;7.70;5.53;;;8.40;99.90;;;;;;5075970;28;20202;-74
2021/11/06 09:58:39;;;;;;;6.90;4.93;;;8.30;99.90;;;;;;5072848;28;20252;-78
2021/11/06 10:01:07;;;;;;;6.10;4.87;;;8.30;99.90;;;;;;5076746;28;20234;-72
2021/11/06 10:03:34;;;;;;;10.00;5.50;;;8.40;99.90;;;;;;5076581;28;20210;-76
2021/11/06 10:06:03;;;;;;;6.60;5.47;;;8.30;99.90;;;;;;5071131;28;20253;-77
2021/11/06 10:08:35;;;;;;;7.77;5.37;;;8.40;99.90;;;;;;5072196;28;20674;-78
2021/11/06 10:11:04;;;;;;;7.20;5.20;;;8.40;99.90;;;;;;5058699;28;20576;-79
2021/11/06 10:13:33;;;;;;;5.33;4.73;;;8.60;99.90;;;;;;5070766;28;20217;-79
2021/11/06 10:16:00;;;;;;;7.47;4.43;;;8.70;99.90;;;;;;5070422;28;20734;-78
2021/11/06 10:18:30;;;;;;;7.13;4.33;;;8.70;99.90;;;;;;5072032;28;20202;-80
2021/11/06 10:21:00;;;;;;;4.57;4.17;;;8.70;99.90;;;;;;5071397;28;20665;-80
2021/11/06 10:23:36;;;;;;;6.27;4.90;;;8.70;99.90;;;;;;5070451;28;20665;-78
2021/11/06 10:26:16;;;;;;;6.07;4.57;;;8.60;99.90;;;;;;5070805;28;20263;-78
2021/11/06 10:28:44;;;;;;;7.50;5.07;;;8.50;99.90;;;;;;5071461;28;20206;-75
2021/11/06 10:31:12;;;;;;;5.27;4.67;;;8.70;99.90;;;;;;5070675;28;20249;-79
2021/11/06 10:33:47;;;;;;;5.37;4.87;;;8.70;99.90;;;;;;5070930;28;20651;-77
2021/11/06 10:36:22;;;;;;;5.77;4.90;;;8.80;99.90;;;;;;5059875;28;20206;-76
2021/11/06 10:39:07;;;;;;;6.77;4.40;;;8.70;99.90;;;;;;5070201;28;20263;-76
2021/11/06 10:41:35;;;;;;;6.20;5.23;;;8.80;99.90;;;;;;5070087;28;20234;-78
2021/11/06 10:44:03;;;;;;;6.60;4.80;;;8.80;99.90;;;;;;5070475;28;20267;-75
2021/11/06 10:46:31;;;;;;;6.17;5.27;;;8.70;99.90;;;;;;5076835;28;20202;-78
2021/11/06 10:49:00;;;;;;;5.87;5.37;;;8.70;99.90;;;;;;5074870;28;20276;-78
2021/11/06 10:51:27;;;;;;;6.63;4.60;;;8.60;99.90;;;;;;5070551;28;20214;-78
2021/11/06 10:53:55;;;;;;;8.30;4.77;;;8.60;99.90;;;;;;5080061;28;20202;-78
2021/11/06 10:56:30;;;;;;;5.23;4.40;;;8.60;99.90;;;;;;5073232;28;20210;-77
2021/11/06 10:58:59;;;;;;;7.77;4.90;;;8.60;99.90;;;;;;5069547;28;20194;-77
2021/11/06 11:01:29;;;;;;;5.27;4.07;;;8.80;99.90;;;;;;5066811;28;20238;-77
2021/11/06 11:04:00;;;;;;;8.53;4.90;;;8.70;99.90;;;;;;5060697;28;20307;-75
2021/11/06 11:06:34;;;;;;;5.23;4.53;;;8.80;99.90;;;;;;5071816;28;20673;-79
2021/11/06 11:09:02;;;;;;;4.60;4.07;;;8.80;99.90;;;;;;5066849;28;20198;-76
2021/11/06 11:11:34;;;;;;;6.27;3.93;;;9.00;99.90;;;;;;5072176;28;20723;-77
2021/11/06 11:14:03;;;;;;;3.83;3.30;;;9.00;99.90;;;;;;5066116;28;20220;-78
2021/11/06 11:16:31;;;;;;;5.97;4.47;;;9.10;99.90;;;;;;5072713;28;20206;-75
2021/11/06 11:19:03;;;;;;;6.07;4.40;;;8.90;99.90;;;;;;5072471;28;20202;-79
2021/11/06 11:21:32;;;;;;;5.60;4.00;;;8.90;99.90;;;;;;5069783;28;20241;-76
2021/11/06 11:24:01;;;;;;;9.10;4.80;;;9.00;99.90;;;;;;5081093;28;20252;-77
2021/11/06 11:26:29;;;;;;;4.57;4.10;;;9.10;99.90;;;;;;5079610;28;20266;-79
2021/11/06 11:28:58;;;;;;;5.77;4.20;;;9.10;99.90;;;;;;5077041;28;20255;-75
2021/11/06 11:31:26;;;;;;;4.37;3.93;;;9.30;99.90;;;;;;5065104;28;20251;-74
2021/11/06 11:33:54;;;;;;;5.77;3.90;;;9.30;99.90;;;;;;5060838;28;20236;-74
2021/11/06 11:36:25;;;;;;;4.60;3.37;;;9.20;99.90;;;;;;5069718;28;20259;-78
2021/11/06 11:38:52;;;;;;;5.77;3.27;;;9.40;99.90;;;;;;5069252;28;20206;-74
2021/11/06 11:41:57;;;;;;;5.73;3.77;;;9.30;99.90;;;;;;5068827;28;20234;-73
2021/11/06 11:44:51;;;;;;;4.00;3.63;;;9.50;99.90;;;;;;5069386;28;20607;-79
2021/11/06 11:47:23;;;;;;;5.97;3.93;;;9.60;99.90;;;;;;5071424;28;20251;-79
2021/11/06 11:49:54;;;;;;;4.77;3.47;;;9.80;99.90;;;;;;5077812;28;20206;-77
2021/11/06 11:52:27;;;;;;;5.90;4.33;;;9.70;99.90;;;;;;5078648;28;20198;-81
2021/11/06 11:54:59;;;;;;;6.97;3.83;;;9.40;99.90;;;;;;5080508;28;20205;-81
2021/11/06 11:57:27;;;;;;;4.50;3.60;;;9.30;99.90;;;;;;5077312;28;20678;-79
2021/11/06 11:59:56;;;;;;;4.17;3.77;;;9.60;99.90;;;;;;5071227;28;20293;-82
2021/11/06 12:02:25;;;;;;;3.90;3.13;;;9.80;99.90;;;;;;5073437;28;20206;-81
2021/11/06 12:05:25;;;;;;;4.20;3.50;;;9.60;99.90;;;;;;5084088;28;20205;-82
2021/11/06 12:08:25;;;;;;;6.83;5.50;;;9.60;99.90;;;;;;5080186;28;20210;-83
2021/11/06 12:10:57;;;;;;;5.80;3.63;;;9.40;99.90;;;;;;5074157;28;20206;-78
2021/11/06 12:13:39;;;;;;;5.23;4.10;;;9.60;99.90;;;;;;5069279;28;20206;-77
2021/11/06 12:16:10;;;;;;;4.47;3.93;;;9.40;99.90;;;;;;5075037;28;20224;-78
2021/11/06 12:18:55;;;;;;;5.57;4.27;;;9.20;99.90;;;;;;5075698;28;20202;-78
2021/11/06 12:21:26;;;;;;;4.87;3.73;;;9.10;99.90;;;;;;5072725;28;20242;-78
2021/11/06 12:23:56;;;;;;;4.13;3.77;;;8.70;99.90;;;;;;5074696;28;20290;-78
2021/11/06 12:26:24;;;;;;;4.17;3.77;;;8.70;99.90;;;;;;5069868;28;20648;-72
2021/11/06 12:29:13;;;;;;;7.70;4.40;;;9.00;99.90;;;;;;5064972;28;20218;-78
2021/11/06 12:31:44;;;;;;;4.53;4.03;;;9.30;99.90;;;;;;5071156;28;20198;-73
2021/11/06 12:34:29;;;;;;;5.13;4.23;;;9.60;99.90;;;;;;5068500;28;20252;-75
2021/11/06 12:36:57;;;;;;;7.43;4.80;;;9.70;99.90;;;;;;5067188;28;20268;-74
2021/11/06 12:39:49;;;;;;;4.33;3.93;;;9.60;99.90;;;;;;5064229;28;20213;-73
2021/11/06 12:42:18;;;;;;;4.60;3.90;;;9.30;99.90;;;;;;5066041;28;20291;-72
2021/11/06 12:44:54;;;;;;;4.57;4.07;;;9.10;99.90;;;;;;5071090;28;20207;-77
2021/11/06 12:47:24;;;;;;;5.17;3.93;;;9.00;99.90;;;;;;5064118;28;20210;-82
2021/11/06 12:49:52;;;;;;;4.17;3.10;;;9.10;99.90;;;;;;5063029;28;20662;-74
2021/11/06 12:52:21;;;;;;;5.87;4.30;;;9.40;99.90;;;;;;5069357;28;20769;-77
2021/11/06 12:54:50;;;;;;;4.10;3.70;;;9.90;99.90;;;;;;5066378;28;20258;-76
2021/11/06 12:57:35;;;;;;;6.63;4.23;;;10.60;99.90;;;;;;5076751;28;20202;-83
2021/11/06 13:00:04;;;;;;;4.73;3.50;;;11.30;99.90;;;;;;5081192;28;20216;-76
2021/11/06 13:02:50;;;;;;;4.90;3.77;;;11.60;99.90;;;;;;5072812;28;20217;-76